createdAt,value
2023-02-06T00:01:45.411Z,7.50
2023-02-06T00:07:07.829Z,8.47
2023-02-06T00:12:30.252Z,8.53
2023-02-06T00:17:52.549Z,7.57
2023-02-06T00:23:15.066Z,7.63
2023-02-06T00:28:38.018Z,7.87
2023-02-06T00:34:00.205Z,11.43
2023-02-06T00:39:22.459Z,16.77
2023-02-06T00:44:44.767Z,16.23
2023-02-06T00:50:07.024Z,9.30
2023-02-06T00:55:29.588Z,10.33
2023-02-06T01:00:53.251Z,10.77
2023-02-06T01:06:15.320Z,8.27
2023-02-06T01:11:38.051Z,13.53
2023-02-06T01:17:00.387Z,5.73
2023-02-06T01:22:22.668Z,11.90
2023-02-06T01:27:44.969Z,14.70
2023-02-06T01:33:08.971Z,19.13
2023-02-06T01:38:32.716Z,12.97
2023-02-06T01:44:17.490Z,9.77
2023-02-06T01:49:45.799Z,11.63
2023-02-06T01:55:08.359Z,10.43
2023-02-06T02:00:31.313Z,8.97
2023-02-06T02:05:58.320Z,11.03
2023-02-06T02:11:34.842Z,8.17
2023-02-06T02:17:06.228Z,10.20
2023-02-06T02:22:50.154Z,9.57
2023-02-06T02:28:18.988Z,8.20
2023-02-06T02:34:10.593Z,9.93
2023-02-06T02:40:02.926Z,11.20
2023-02-06T02:45:43.426Z,9.20
2023-02-06T02:51:07.015Z,7.37
2023-02-06T02:56:30.749Z,10.13
2023-02-06T03:01:58.940Z,12.00
2023-02-06T03:08:12.004Z,11.80
2023-02-06T03:13:43.095Z,11.03
2023-02-06T03:19:07.608Z,14.07
2023-02-06T03:24:34.444Z,10.83
2023-02-06T03:30:00.934Z,10.37
2023-02-06T03:35:29.607Z,9.57
2023-02-06T03:40:54.413Z,8.23
2023-02-06T03:46:18.733Z,13.40
2023-02-06T03:51:47.426Z,12.10
2023-02-06T03:57:14.065Z,9.73
2023-02-06T04:02:37.513Z,12.40
2023-02-06T04:08:00.047Z,9.77
2023-02-06T04:13:22.696Z,11.03
2023-02-06T04:18:44.876Z,8.80
2023-02-06T04:24:07.488Z,12.00
2023-02-06T04:29:31.202Z,16.80
2023-02-06T04:34:53.361Z,10.00
2023-02-06T04:40:15.686Z,9.20
2023-02-06T04:45:38.224Z,10.30
2023-02-06T04:51:00.832Z,15.03
2023-02-06T04:56:25.576Z,11.40
2023-02-06T05:01:48.185Z,13.13
2023-02-06T05:07:10.419Z,18.80
2023-02-06T05:12:33.001Z,11.70
2023-02-06T05:17:55.486Z,11.57
2023-02-06T05:23:17.970Z,14.63
2023-02-06T05:28:40.346Z,9.77
2023-02-06T05:34:03.198Z,9.93
2023-02-06T05:39:26.442Z,14.67
2023-02-06T05:44:48.965Z,9.67
2023-02-06T05:50:11.548Z,14.37
2023-02-06T05:55:34.473Z,10.07
2023-02-06T06:00:56.991Z,18.97
2023-02-06T06:06:19.676Z,8.80
2023-02-06T06:11:42.166Z,7.33
2023-02-06T06:17:04.418Z,12.30
2023-02-06T06:22:26.845Z,11.83
2023-02-06T06:27:49.112Z,10.43
2023-02-06T06:33:11.727Z,14.87
2023-02-06T06:38:34.305Z,13.80
2023-02-06T06:43:57.749Z,15.57
2023-02-06T06:49:20.417Z,13.70
2023-02-06T06:54:43.554Z,13.03
2023-02-06T07:00:06.243Z,12.10
2023-02-06T07:05:28.564Z,14.70
2023-02-06T07:10:51.001Z,13.57
2023-02-06T07:16:13.906Z,13.33
2023-02-06T07:21:36.433Z,16.30
2023-02-06T07:26:58.844Z,19.07
2023-02-06T07:32:21.169Z,17.43
2023-02-06T07:37:43.478Z,17.70
2023-02-06T07:43:08.692Z,19.03
2023-02-06T07:48:32.272Z,14.57
2023-02-06T07:53:55.031Z,16.17
2023-02-06T07:59:17.529Z,12.93
2023-02-06T08:04:40.219Z,11.97
2023-02-06T08:10:02.571Z,19.20
2023-02-06T08:15:25.464Z,28.10
2023-02-06T08:20:47.954Z,18.13
2023-02-06T08:26:13.568Z,21.73
2023-02-06T08:31:38.719Z,23.77
2023-02-06T08:37:00.896Z,18.67
2023-02-06T08:42:23.587Z,19.47
2023-02-06T08:47:45.870Z,26.13
2023-02-06T08:53:08.390Z,29.37
2023-02-06T08:58:31.359Z,26.80
2023-02-06T09:03:59.212Z,27.33
2023-02-06T09:09:21.751Z,27.67
2023-02-06T09:14:44.489Z,32.23
2023-02-06T09:20:07.548Z,25.90
2023-02-06T09:25:29.884Z,27.67
2023-02-06T09:30:52.383Z,25.07
2023-02-06T09:36:17.172Z,26.50
2023-02-06T09:42:04.806Z,29.57
2023-02-06T09:47:45.755Z,30.60
2023-02-06T09:53:15.210Z,28.23
2023-02-06T09:58:40.304Z,26.03
2023-02-06T10:04:10.254Z,25.80
2023-02-06T10:09:41.682Z,24.00
2023-02-06T10:15:25.010Z,25.33
2023-02-06T10:20:55.223Z,26.97
2023-02-06T10:26:19.165Z,29.43
2023-02-06T10:31:53.812Z,25.93
2023-02-06T10:37:31.292Z,26.70
2023-02-06T10:43:02.025Z,27.03
2023-02-06T10:48:36.330Z,37.23
2023-02-06T10:54:03.137Z,32.83
2023-02-06T10:59:53.972Z,26.03
2023-02-06T11:05:21.782Z,27.20
2023-02-06T11:10:45.352Z,23.83
2023-02-06T11:16:16.405Z,22.97
2023-02-06T11:21:50.953Z,20.80
2023-02-06T11:27:21.065Z,21.53
2023-02-06T11:32:52.709Z,15.00
2023-02-06T11:38:28.192Z,13.77
2023-02-06T11:43:53.168Z,11.10
2023-02-06T11:49:31.462Z,15.37
2023-02-06T11:54:55.517Z,15.90
2023-02-06T12:00:23.023Z,13.43
2023-02-06T12:05:45.664Z,14.13
2023-02-06T12:11:16.411Z,18.10
2023-02-06T12:16:42.201Z,15.70
2023-02-06T12:22:21.256Z,14.93
2023-02-06T12:27:44.488Z,16.10
2023-02-06T12:33:22.285Z,15.50
2023-02-06T12:39:11.838Z,11.20
2023-02-06T12:44:40.564Z,15.40
2023-02-06T12:50:39.954Z,12.07
2023-02-06T12:56:05.359Z,12.53
2023-02-06T13:01:43.191Z,13.50
2023-02-06T13:07:15.778Z,14.30
2023-02-06T13:12:38.284Z,15.30
2023-02-06T13:18:00.578Z,16.40
2023-02-06T13:23:24.442Z,16.10
2023-02-06T13:28:57.883Z,15.83
2023-02-06T13:34:20.488Z,14.43
2023-02-06T13:39:48.190Z,14.67
2023-02-06T13:45:22.094Z,17.60
2023-02-06T13:50:46.940Z,12.83
2023-02-06T13:56:14.523Z,15.83
2023-02-06T14:01:37.158Z,12.43
2023-02-06T14:07:25.085Z,12.80
2023-02-06T14:12:50.104Z,19.60
2023-02-06T14:18:41.183Z,13.60
2023-02-06T14:24:28.123Z,10.80
2023-02-06T14:30:02.832Z,12.00
2023-02-06T14:35:42.154Z,14.00
2023-02-06T14:41:04.957Z,14.73
2023-02-06T14:46:29.337Z,11.27
2023-02-06T14:51:52.742Z,15.53
2023-02-06T14:57:23.038Z,13.23
2023-02-06T15:02:46.422Z,12.53
2023-02-06T15:08:17.378Z,15.37
2023-02-06T15:13:39.970Z,17.90
2023-02-06T15:19:24.039Z,16.87
2023-02-06T15:25:25.976Z,14.83
2023-02-06T15:30:54.550Z,16.53
2023-02-06T15:36:32.651Z,14.43
2023-02-06T15:41:55.264Z,16.33
2023-02-06T15:47:20.863Z,10.47
2023-02-06T15:52:47.312Z,17.70
2023-02-06T15:58:15.632Z,17.90
2023-02-06T16:03:41.775Z,14.10
2023-02-06T16:09:07.405Z,20.07
2023-02-06T16:14:39.124Z,12.90
2023-02-06T16:20:07.537Z,11.93
2023-02-06T16:25:32.194Z,14.93
2023-02-06T16:30:57.920Z,14.57
2023-02-06T16:36:22.908Z,16.77
2023-02-06T16:41:51.174Z,13.13
2023-02-06T16:47:16.160Z,18.70
2023-02-06T16:52:46.056Z,20.93
2023-02-06T16:58:15.815Z,19.63
2023-02-06T17:03:38.887Z,21.40
2023-02-06T17:09:06.578Z,24.77
2023-02-06T17:14:28.703Z,26.43
2023-02-06T17:19:52.390Z,28.67
2023-02-06T17:25:14.693Z,30.90
2023-02-06T17:30:38.278Z,29.17
2023-02-06T17:36:01.470Z,29.77
2023-02-06T17:41:23.977Z,27.10
2023-02-06T17:46:47.856Z,20.00
2023-02-06T17:52:09.987Z,26.67
2023-02-06T17:57:33.973Z,27.33
2023-02-06T18:02:59.396Z,27.97
2023-02-06T18:08:21.912Z,35.67
2023-02-06T18:13:45.082Z,34.10
2023-02-06T18:19:07.401Z,34.53
2023-02-06T18:24:29.905Z,35.37
2023-02-06T18:29:55.258Z,36.53
2023-02-06T18:35:19.867Z,55.27
2023-02-06T18:40:45.640Z,39.57
2023-02-06T18:46:08.124Z,48.70
2023-02-06T18:51:30.878Z,53.77
2023-02-06T18:56:53.587Z,51.17
2023-02-06T19:02:16.343Z,47.07
2023-02-06T19:07:38.608Z,56.63
2023-02-06T19:13:01.412Z,61.47
2023-02-06T19:18:37.481Z,59.90
2023-02-06T19:24:01.237Z,48.13
2023-02-06T19:29:35.177Z,53.00
2023-02-06T19:34:58.667Z,39.60
2023-02-06T19:40:21.129Z,30.40
2023-02-06T19:45:43.266Z,31.57
2023-02-06T19:51:08.568Z,38.90
2023-02-06T19:56:34.717Z,38.10
2023-02-06T20:02:00.318Z,32.23
2023-02-06T20:07:22.530Z,30.93
2023-02-06T20:12:45.235Z,39.00
2023-02-06T20:18:07.673Z,21.97
2023-02-06T20:23:30.596Z,28.33
2023-02-06T20:28:53.027Z,30.47
2023-02-06T20:34:16.395Z,32.53
2023-02-06T20:39:39.368Z,28.27
2023-02-06T20:45:01.869Z,32.30
2023-02-06T20:50:24.360Z,28.00
2023-02-06T20:55:47.318Z,30.37
2023-02-06T21:01:16.941Z,29.87
2023-02-06T21:06:40.382Z,24.90
2023-02-06T21:12:02.901Z,26.20
2023-02-06T21:17:25.196Z,30.03
2023-02-06T21:22:47.731Z,30.17
2023-02-06T21:28:10.090Z,34.43
2023-02-06T21:33:33.496Z,32.10
2023-02-06T21:38:56.877Z,26.03
2023-02-06T21:44:20.503Z,34.00
2023-02-06T21:49:43.015Z,30.77
2023-02-06T21:55:07.600Z,33.20
2023-02-06T22:00:30.514Z,28.77
2023-02-06T22:05:52.783Z,33.03
2023-02-06T22:11:16.703Z,28.67
2023-02-06T22:16:39.508Z,20.33
2023-02-06T22:22:02.620Z,27.43
2023-02-06T22:27:27.655Z,22.37
2023-02-06T22:32:49.780Z,24.87
2023-02-06T22:38:12.072Z,29.07
2023-02-06T22:43:37.211Z,24.77
2023-02-06T22:49:00.044Z,29.63
2023-02-06T22:54:22.553Z,19.93
2023-02-06T22:59:44.707Z,20.53
2023-02-06T23:05:07.099Z,17.67
2023-02-06T23:10:29.321Z,18.10
2023-02-06T23:15:51.667Z,20.43
2023-02-06T23:21:15.172Z,25.13
2023-02-06T23:26:37.983Z,24.37
2023-02-06T23:32:00.354Z,15.17
2023-02-06T23:37:22.786Z,21.30
2023-02-06T23:42:45.534Z,15.80
2023-02-06T23:48:07.770Z,20.23
2023-02-06T23:53:31.523Z,21.70
2023-02-06T23:58:56.140Z,18.73
